Time;durP1;ratioP1;P1;durP2;ratioP2;P2;SDS_P1;SDS_P2;PMS_P1;PMS_P2;Temp;Humidity;BMP_temperature;BMP_pressure;BME280_temperature;BME280_humidity;BME280_pressure;Samples;Min_cycle;Max_cycle;Signal;HPM_P1;HPM_P2
2024/02/05 00:00:16;;;;;;;7.82;4.70;;;;;;;;;;1031885;28;20077;-18
2024/02/05 00:00:46;;;;;;;2.28;2.08;;;;;;;;;;1032094;28;20030;-18
2024/02/05 00:01:18;;;;;;;3.78;3.47;;;;;;;;;;1032194;28;20015;-18
2024/02/05 00:01:49;;;;;;;9.05;4.65;;;;;;;;;;1031411;28;20026;-18
2024/02/05 00:02:19;;;;;;;16.23;3.15;;;;;;;;;;1032140;28;20077;-18
2024/02/05 00:02:50;;;;;;;5.80;2.95;;;;;;;;;;1032052;28;20441;-18
2024/02/05 00:03:21;;;;;;;6.88;3.45;;;;;;;;;;1032041;28;20025;-18
2024/02/05 00:03:51;;;;;;;2.65;2.45;;;;;;;;;;1032143;28;20057;-18
2024/02/05 00:04:22;;;;;;;4.22;3.47;;;;;;;;;;1031987;28;20588;-18
2024/02/05 00:04:52;;;;;;;5.45;4.80;;;;;;;;;;1031915;28;20045;-20
2024/02/05 00:05:22;;;;;;;5.75;4.70;;;;;;;;;;1032137;28;20072;-18
2024/02/05 00:05:53;;;;;;;19.40;3.75;;;;;;;;;;1032217;28;20022;-18
2024/02/05 00:06:23;;;;;;;3.60;3.40;;;;;;;;;;1032095;28;20022;-18
2024/02/05 00:06:54;;;;;;;4.65;2.78;;;;;;;;;;1032134;28;20050;-18
2024/02/05 00:07:24;;;;;;;4.88;2.58;;;;;;;;;;1031310;28;20034;-18
2024/02/05 00:07:54;;;;;;;6.13;3.95;;;;;;;;;;1032271;28;20024;-18
2024/02/05 00:08:25;;;;;;;2.40;2.20;;;;;;;;;;1032184;28;20912;-18
2024/02/05 00:08:55;;;;;;;9.85;4.18;;;;;;;;;;1031421;28;20555;-19
2024/02/05 00:09:26;;;;;;;3.30;2.88;;;;;;;;;;1030362;28;20113;-19
2024/02/05 00:09:56;;;;;;;3.13;2.83;;;;;;;;;;1031490;28;20041;-18
2024/02/05 00:10:27;;;;;;;4.03;3.63;;;;;;;;;;1031584;28;20033;-18
2024/02/05 00:10:58;;;;;;;1.52;1.42;;;;;;;;;;1032089;28;20030;-18
2024/02/05 00:11:28;;;;;;;7.68;2.28;;;;;;;;;;1032050;28;20476;-18
2024/02/05 00:11:59;;;;;;;12.30;3.63;;;;;;;;;;1032290;28;20473;-18
2024/02/05 00:12:30;;;;;;;2.58;2.38;;;;;;;;;;1032055;28;20461;-18
2024/02/05 00:13:01;;;;;;;3.08;2.65;;;;;;;;;;1032007;28;20011;-18
2024/02/05 00:13:31;;;;;;;1.75;1.65;;;;;;;;;;1032048;28;20026;-18
2024/02/05 00:14:02;;;;;;;1.90;1.80;;;;;;;;;;1032030;28;20065;-19
2024/02/05 00:14:32;;;;;;;4.30;2.92;;;;;;;;;;1032024;28;20025;-18
2024/02/05 00:15:04;;;;;;;4.03;3.13;;;;;;;;;;1030881;28;20076;-18
2024/02/05 00:15:34;;;;;;;3.33;3.15;;;;;;;;;;1031963;28;20033;-18
2024/02/05 00:16:05;;;;;;;4.47;2.40;;;;;;;;;;1032209;28;20025;-18
2024/02/05 00:16:35;;;;;;;2.58;2.42;;;;;;;;;;1032020;28;20033;-18
2024/02/05 00:17:05;;;;;;;3.88;3.00;;;;;;;;;;1032085;28;20011;-18
2024/02/05 00:17:36;;;;;;;7.20;4.15;;;;;;;;;;1032030;28;20030;-18
2024/02/05 00:18:06;;;;;;;3.90;3.42;;;;;;;;;;1031839;28;20390;-17
2024/02/05 00:18:37;;;;;;;6.88;4.50;;;;;;;;;;1032108;28;20104;-18
2024/02/05 00:19:07;;;;;;;4.82;3.55;;;;;;;;;;1031568;28;20026;-18
2024/02/05 00:19:38;;;;;;;4.43;4.13;;;;;;;;;;1031874;28;20065;-18
2024/02/05 00:20:08;;;;;;;3.85;3.55;;;;;;;;;;1030001;28;20072;-18
2024/02/05 00:20:39;;;;;;;6.05;5.35;;;;;;;;;;1029970;28;20076;-18
2024/02/05 00:21:09;;;;;;;2.97;2.78;;;;;;;;;;1032032;28;20065;-18
2024/02/05 00:21:40;;;;;;;10.30;4.57;;;;;;;;;;1031975;28;20054;-18
2024/02/05 00:22:10;;;;;;;2.10;2.00;;;;;;;;;;1030926;28;20022;-19
2024/02/05 00:22:42;;;;;;;2.30;2.00;;;;;;;;;;1031403;28;20026;-18
2024/02/05 00:23:12;;;;;;;2.85;2.65;;;;;;;;;;1031244;28;20046;-19
2024/02/05 00:23:43;;;;;;;7.47;3.83;;;;;;;;;;1031679;28;20034;-18
2024/02/05 00:24:13;;;;;;;4.30;3.88;;;;;;;;;;1030589;28;20101;-18
2024/02/05 00:24:44;;;;;;;18.25;5.90;;;;;;;;;;1031964;28;20037;-18
2024/02/05 00:25:14;;;;;;;10.73;6.03;;;;;;;;;;1031839;28;20022;-18
2024/02/05 00:25:45;;;;;;;4.38;3.50;;;;;;;;;;1032083;28;20476;-19
2024/02/05 00:26:15;;;;;;;4.90;4.50;;;;;;;;;;1032183;28;20018;-19
2024/02/05 00:26:45;;;;;;;7.03;4.10;;;;;;;;;;1032036;28;20458;-18
2024/02/05 00:27:16;;;;;;;20.65;2.47;;;;;;;;;;1032102;28;20389;-18
2024/02/05 00:27:47;;;;;;;10.38;4.63;;;;;;;;;;1032140;28;20022;-18
2024/02/05 00:28:17;;;;;;;6.00;4.43;;;;;;;;;;1032157;28;20113;-17
2024/02/05 00:28:48;;;;;;;6.28;4.13;;;;;;;;;;1032043;28;20030;-17
2024/02/05 00:29:18;;;;;;;4.85;3.75;;;;;;;;;;1032036;28;20023;-17
2024/02/05 00:29:49;;;;;;;4.13;3.65;;;;;;;;;;1032138;28;20027;-16
2024/02/05 00:30:19;;;;;;;4.15;2.75;;;;;;;;;;1032138;28;20547;-18
2024/02/05 00:30:50;;;;;;;9.07;6.15;;;;;;;;;;1032053;28;20020;-18
2024/02/05 00:31:20;;;;;;;4.10;3.25;;;;;;;;;;1032083;28;20045;-17
2024/02/05 00:31:51;;;;;;;3.05;2.70;;;;;;;;;;1031706;28;20026;-18
2024/02/05 00:32:21;;;;;;;5.53;3.30;;;;;;;;;;1031645;28;20058;-16
2024/02/05 00:32:52;;;;;;;6.18;2.90;;;;;;;;;;1032086;28;20053;-18
2024/02/05 00:33:22;;;;;;;6.32;5.22;;;;;;;;;;1032047;28;20473;-18
2024/02/05 00:33:53;;;;;;;3.47;2.38;;;;;;;;;;1032191;28;20492;-17
2024/02/05 00:34:23;;;;;;;3.03;2.67;;;;;;;;;;1031922;28;20022;-18
2024/02/05 00:34:56;;;;;;;8.30;3.85;;;;;;;;;;1031978;28;20477;-19
2024/02/05 00:35:26;;;;;;;10.70;3.75;;;;;;;;;;1031972;28;20477;-18
2024/02/05 00:35:57;;;;;;;9.25;5.88;;;;;;;;;;1032216;28;20034;-18
2024/02/05 00:36:27;;;;;;;7.57;4.63;;;;;;;;;;1032148;28;20018;-17
2024/02/05 00:36:58;;;;;;;10.82;4.78;;;;;;;;;;1031698;28;20034;-18
2024/02/05 00:37:28;;;;;;;4.45;2.70;;;;;;;;;;1030418;28;20041;-18
2024/02/05 00:37:59;;;;;;;5.75;5.30;;;;;;;;;;1031858;28;20478;-18
2024/02/05 00:38:29;;;;;;;4.20;3.47;;;;;;;;;;1031820;28;20033;-18
2024/02/05 00:39:00;;;;;;;3.28;2.97;;;;;;;;;;1031354;28;20383;-20
2024/02/05 00:39:30;;;;;;;14.48;4.55;;;;;;;;;;1031629;28;20117;-18
2024/02/05 00:40:00;;;;;;;7.43;4.13;;;;;;;;;;1031672;28;20403;-18
2024/02/05 00:40:31;;;;;;;10.98;2.72;;;;;;;;;;1031863;28;20034;-18
2024/02/05 00:41:01;;;;;;;9.23;4.03;;;;;;;;;;1031204;28;20121;-18
2024/02/05 00:41:32;;;;;;;8.18;4.38;;;;;;;;;;1031534;28;20081;-18
2024/02/05 00:42:02;;;;;;;6.43;5.05;;;;;;;;;;1030433;28;20019;-18
2024/02/05 00:42:33;;;;;;;3.80;2.63;;;;;;;;;;1031480;28;20026;-18
2024/02/05 00:43:04;;;;;;;18.13;5.85;;;;;;;;;;1031590;28;20051;-18
2024/02/05 00:43:35;;;;;;;5.97;5.45;;;;;;;;;;1031832;28;20080;-18
2024/02/05 00:44:05;;;;;;;5.25;3.80;;;;;;;;;;1031626;28;20528;-18
2024/02/05 00:44:37;;;;;;;4.13;3.55;;;;;;;;;;1031767;28;20018;-18
2024/02/05 00:45:08;;;;;;;7.72;5.13;;;;;;;;;;1031300;28;20547;-18
2024/02/05 00:45:38;;;;;;;6.57;3.28;;;;;;;;;;1030999;28;20022;-18
2024/02/05 00:46:09;;;;;;;2.17;2.05;;;;;;;;;;1031233;28;20038;-18
2024/02/05 00:46:39;;;;;;;4.53;1.60;;;;;;;;;;1031765;28;20069;-18
2024/02/05 00:47:09;;;;;;;6.20;4.00;;;;;;;;;;1031436;28;20073;-18
2024/02/05 00:47:40;;;;;;;9.27;4.38;;;;;;;;;;1031668;28;20425;-19
2024/02/05 00:48:10;;;;;;;3.97;3.67;;;;;;;;;;1031626;28;20027;-18
2024/02/05 00:48:41;;;;;;;1.63;1.52;;;;;;;;;;1031554;28;20081;-18
2024/02/05 00:49:11;;;;;;;2.13;2.00;;;;;;;;;;1031580;28;20177;-18
2024/02/05 00:49:41;;;;;;;7.38;4.10;;;;;;;;;;1031385;28;20026;-18
2024/02/05 00:50:12;;;;;;;2.67;2.55;;;;;;;;;;1031554;28;20034;-18
2024/02/05 00:50:42;;;;;;;4.18;3.85;;;;;;;;;;1031440;28;20077;-17
2024/02/05 00:51:13;;;;;;;6.13;2.67;;;;;;;;;;1031453;28;20030;-18
2024/02/05 00:51:43;;;;;;;3.83;2.58;;;;;;;;;;1031694;28;20034;-18
2024/02/05 00:52:14;;;;;;;5.35;2.40;;;;;;;;;;1031380;28;20084;-18
2024/02/05 00:52:44;;;;;;;1.38;1.33;;;;;;;;;;1030612;28;20531;-18
2024/02/05 00:53:15;;;;;;;6.60;4.93;;;;;;;;;;1031847;28;20026;-18
2024/02/05 00:53:46;;;;;;;14.63;5.47;;;;;;;;;;1031746;28;20096;-18
2024/02/05 00:54:17;;;;;;;7.13;4.78;;;;;;;;;;1030582;28;20079;-18
2024/02/05 00:54:47;;;;;;;3.03;2.80;;;;;;;;;;1030321;28;20030;-18
2024/02/05 00:55:18;;;;;;;4.28;3.67;;;;;;;;;;1031749;28;20056;-18
2024/02/05 00:55:48;;;;;;;2.20;2.00;;;;;;;;;;1031694;28;20473;-18
2024/02/05 00:56:18;;;;;;;4.43;3.28;;;;;;;;;;1031779;28;20022;-18
2024/02/05 00:56:49;;;;;;;4.22;3.75;;;;;;;;;;1031242;28;20027;-18
2024/02/05 00:57:19;;;;;;;3.03;2.83;;;;;;;;;;1031670;28;20018;-18
2024/02/05 00:57:50;;;;;;;4.35;2.83;;;;;;;;;;1031746;28;20053;-18
2024/02/05 00:58:20;;;;;;;1.98;1.80;;;;;;;;;;1031675;28;20022;-18
2024/02/05 00:58:51;;;;;;;3.75;3.30;;;;;;;;;;1031226;28;20026;-18
2024/02/05 00:59:21;;;;;;;3.65;3.33;;;;;;;;;;1031485;28;20546;-19
2024/02/05 00:59:52;;;;;;;3.85;3.55;;;;;;;;;;1031634;28;20481;-18
2024/02/05 01:00:23;;;;;;;4.22;2.63;;;;;;;;;;1031195;28;20374;-18
2024/02/05 01:00:54;;;;;;;2.45;2.25;;;;;;;;;;1029402;28;20045;-18
2024/02/05 01:01:24;;;;;;;4.60;3.67;;;;;;;;;;1029316;28;20156;-19
2024/02/05 01:01:55;;;;;;;2.75;1.83;;;;;;;;;;1031664;28;20417;-18
2024/02/05 01:02:25;;;;;;;15.88;6.32;;;;;;;;;;1031048;28;20026;-18
2024/02/05 01:02:56;;;;;;;4.63;3.47;;;;;;;;;;1031564;28;20598;-18
2024/02/05 01:03:26;;;;;;;2.70;2.55;;;;;;;;;;1031269;28;20389;-18
2024/02/05 01:03:57;;;;;;;10.15;3.58;;;;;;;;;;1031581;28;20068;-19
2024/02/05 01:04:30;;;;;;;2.88;2.28;;;;;;;;;;1031339;28;20165;-18
2024/02/05 01:05:01;;;;;;;3.85;3.20;;;;;;;;;;1031367;28;20037;-18
2024/02/05 01:05:31;;;;;;;10.90;4.63;;;;;;;;;;1031629;28;20037;-18
2024/02/05 01:06:03;;;;;;;8.07;4.32;;;;;;;;;;1030365;28;20488;-18
2024/02/05 01:06:33;;;;;;;5.28;2.65;;;;;;;;;;1030942;28;20034;-18
2024/02/05 01:07:04;;;;;;;3.78;3.22;;;;;;;;;;1031419;28;20022;-18
2024/02/05 01:07:34;;;;;;;4.53;4.22;;;;;;;;;;1030642;28;20019;-18
2024/02/05 01:08:05;;;;;;;3.53;3.15;;;;;;;;;;1031583;28;20026;-18
2024/02/05 01:08:36;;;;;;;2.80;2.03;;;;;;;;;;1031501;28;20025;-18
2024/02/05 01:09:09;;;;;;;7.35;4.00;;;;;;;;;;1029250;28;20026;-18
2024/02/05 01:09:41;;;;;;;2.75;2.25;;;;;;;;;;1027718;28;20026;-20
2024/02/05 01:10:11;;;;;;;6.55;3.35;;;;;;;;;;1030766;28;20084;-19
2024/02/05 01:10:42;;;;;;;11.07;3.92;;;;;;;;;;1030476;28;20573;-18
2024/02/05 01:11:13;;;;;;;5.28;4.38;;;;;;;;;;1030934;28;20030;-18
2024/02/05 01:11:45;;;;;;;10.13;3.55;;;;;;;;;;1030919;28;20477;-18
2024/02/05 01:12:16;;;;;;;4.97;2.58;;;;;;;;;;1031299;28;20030;-18
2024/02/05 01:12:46;;;;;;;4.88;4.40;;;;;;;;;;1030337;28;20029;-18
2024/02/05 01:13:17;;;;;;;4.32;3.35;;;;;;;;;;1030426;28;20029;-18
2024/02/05 01:13:48;;;;;;;14.43;5.78;;;;;;;;;;1030476;28;20022;-18
2024/02/05 01:14:18;;;;;;;5.60;4.20;;;;;;;;;;1030797;28;20026;-18
2024/02/05 01:14:49;;;;;;;4.90;3.97;;;;;;;;;;1031156;28;20046;-18
2024/02/05 01:15:19;;;;;;;3.00;2.67;;;;;;;;;;1029854;28;20144;-18
2024/02/05 01:15:49;;;;;;;3.28;3.08;;;;;;;;;;1031112;28;20018;-18
2024/02/05 01:16:20;;;;;;;3.05;2.75;;;;;;;;;;1031388;28;20027;-18
2024/02/05 01:16:50;;;;;;;8.93;5.50;;;;;;;;;;1031180;28;20560;-18
2024/02/05 01:17:22;;;;;;;1.33;1.30;;;;;;;;;;1029898;28;20037;-18
2024/02/05 01:17:53;;;;;;;5.68;3.90;;;;;;;;;;1031702;28;20026;-18
2024/02/05 01:18:23;;;;;;;4.60;3.42;;;;;;;;;;1028940;28;20022;-18
2024/02/05 01:18:54;;;;;;;3.63;2.85;;;;;;;;;;1029264;28;20035;-19
2024/02/05 01:19:24;;;;;;;3.60;2.55;;;;;;;;;;1031200;28;20026;-18
2024/02/05 01:19:54;;;;;;;7.63;3.58;;;;;;;;;;1031465;28;20022;-18
2024/02/05 01:20:25;;;;;;;4.97;3.60;;;;;;;;;;1031389;28;20553;-18
2024/02/05 01:20:55;;;;;;;5.30;4.70;;;;;;;;;;1031369;28;20627;-19
2024/02/05 01:21:26;;;;;;;9.70;3.95;;;;;;;;;;1031300;28;20034;-18
2024/02/05 01:21:56;;;;;;;2.88;2.67;;;;;;;;;;1031188;28;20030;-18
2024/02/05 01:22:27;;;;;;;3.83;2.80;;;;;;;;;;1029959;28;20062;-18
2024/02/05 01:22:57;;;;;;;3.92;3.63;;;;;;;;;;1030394;28;20465;-18
2024/02/05 01:23:28;;;;;;;12.82;5.07;;;;;;;;;;1027708;28;20489;-18
2024/02/05 01:23:58;;;;;;;3.65;3.45;;;;;;;;;;1005574;28;20023;-18
2024/02/05 01:24:29;;;;;;;3.08;2.70;;;;;;;;;;1028068;28;20018;-18
2024/02/05 01:24:59;;;;;;;3.42;3.13;;;;;;;;;;1030935;28;20031;-18
2024/02/05 01:25:29;;;;;;;3.38;3.08;;;;;;;;;;1028358;28;20022;-18
2024/02/05 01:26:00;;;;;;;6.65;6.22;;;;;;;;;;1029087;28;20440;-19
2024/02/05 01:26:30;;;;;;;8.50;4.10;;;;;;;;;;1029048;28;20496;-18
2024/02/05 01:27:01;;;;;;;6.55;3.97;;;;;;;;;;1030403;28;20474;-17
2024/02/05 01:27:31;;;;;;;2.65;2.45;;;;;;;;;;1030521;28;20393;-18
2024/02/05 01:28:03;;;;;;;3.55;3.35;;;;;;;;;;1030674;28;20026;-18
2024/02/05 01:28:34;;;;;;;4.35;2.60;;;;;;;;;;1029575;28;20105;-18
2024/02/05 01:29:06;;;;;;;3.80;3.40;;;;;;;;;;1030971;28;20481;-17
2024/02/05 01:29:37;;;;;;;13.25;4.40;;;;;;;;;;1030520;28;20761;-18
2024/02/05 01:30:08;;;;;;;11.40;5.45;;;;;;;;;;1030628;28;20032;-18
2024/02/05 01:30:39;;;;;;;9.02;4.65;;;;;;;;;;1028131;28;20033;-18
2024/02/05 01:31:10;;;;;;;4.88;4.45;;;;;;;;;;1030650;28;20033;-19
2024/02/05 01:31:44;;;;;;;5.10;4.63;;;;;;;;;;1028319;28;20474;-19
2024/02/05 01:32:14;;;;;;;2.25;2.05;;;;;;;;;;1028045;28;20141;-18
2024/02/05 01:32:44;;;;;;;5.28;4.20;;;;;;;;;;1029868;28;20492;-18
2024/02/05 01:33:15;;;;;;;6.88;4.40;;;;;;;;;;1030126;28;20022;-18
2024/02/05 01:33:45;;;;;;;13.75;6.05;;;;;;;;;;1030257;28;20520;-18
2024/02/05 01:34:16;;;;;;;1.83;1.73;;;;;;;;;;1027435;28;20486;-19
2024/02/05 01:34:47;;;;;;;3.28;2.60;;;;;;;;;;1029700;28;20026;-18
2024/02/05 01:35:18;;;;;;;4.28;3.97;;;;;;;;;;1027683;28;20477;-19
2024/02/05 01:35:48;;;;;;;7.57;3.25;;;;;;;;;;1029763;28;20037;-18
2024/02/05 01:36:19;;;;;;;11.10;5.18;;;;;;;;;;1028364;28;20041;-19
2024/02/05 01:36:49;;;;;;;9.43;2.72;;;;;;;;;;1026839;28;20030;-18
2024/02/05 01:37:20;;;;;;;7.32;4.00;;;;;;;;;;1028326;28;20094;-18
2024/02/05 01:37:50;;;;;;;17.75;9.65;;;;;;;;;;1030829;28;20045;-18
2024/02/05 01:38:20;;;;;;;9.27;3.90;;;;;;;;;;1031043;28;20548;-17
2024/02/05 01:38:51;;;;;;;6.53;3.70;;;;;;;;;;1030777;28;20026;-18
2024/02/05 01:39:22;;;;;;;5.22;3.55;;;;;;;;;;1030128;28;20034;-18
2024/02/05 01:39:52;;;;;;;6.28;5.60;;;;;;;;;;1029189;28;20043;-19
2024/02/05 01:40:22;;;;;;;8.73;6.55;;;;;;;;;;1027281;28;20130;-19
2024/02/05 01:40:53;;;;;;;6.78;3.25;;;;;;;;;;1031305;28;20026;-18
2024/02/05 01:41:24;;;;;;;5.45;3.70;;;;;;;;;;1028174;28;20473;-18
2024/02/05 01:41:54;;;;;;;19.95;5.00;;;;;;;;;;1029620;28;20446;-18
2024/02/05 01:42:25;;;;;;;14.23;4.95;;;;;;;;;;1029392;28;20068;-18
2024/02/05 01:42:55;;;;;;;3.78;3.42;;;;;;;;;;1031277;28;20026;-18
2024/02/05 01:43:26;;;;;;;4.75;4.32;;;;;;;;;;1027859;28;20034;-18
2024/02/05 01:43:56;;;;;;;19.17;4.13;;;;;;;;;;1030870;28;20033;-18
2024/02/05 01:44:27;;;;;;;13.48;4.20;;;;;;;;;;1031202;28;20030;-18
2024/02/05 01:44:57;;;;;;;5.05;3.35;;;;;;;;;;1029481;28;20018;-19
2024/02/05 01:45:28;;;;;;;11.38;4.30;;;;;;;;;;1029542;28;20057;-19
2024/02/05 01:45:58;;;;;;;6.57;4.57;;;;;;;;;;1030204;28;20120;-19
2024/02/05 01:46:31;;;;;;;7.38;2.80;;;;;;;;;;1030419;28;20378;-18
2024/02/05 01:47:01;;;;;;;15.77;4.95;;;;;;;;;;1030892;28;20854;-18
2024/02/05 01:47:36;;;;;;;5.65;2.33;;;;;;;;;;1031316;28;20105;-18
2024/02/05 01:48:07;;;;;;;4.90;4.47;;;;;;;;;;1030412;28;20030;-18
2024/02/05 01:48:38;;;;;;;4.07;3.38;;;;;;;;;;1031584;28;20493;-18
2024/02/05 01:49:09;;;;;;;3.95;3.38;;;;;;;;;;1029769;28;20018;-19
2024/02/05 01:49:41;;;;;;;4.32;2.95;;;;;;;;;;1027290;28;20023;-18
2024/02/05 01:50:12;;;;;;;7.88;4.03;;;;;;;;;;1031012;28;20038;-18
2024/02/05 01:50:43;;;;;;;4.55;4.18;;;;;;;;;;1031252;28;20585;-18
2024/02/05 01:51:14;;;;;;;7.05;6.35;;;;;;;;;;1029494;28;20026;-18
2024/02/05 01:51:47;;;;;;;5.88;4.72;;;;;;;;;;1031180;28;20433;-18
2024/02/05 01:52:19;;;;;;;5.10;3.40;;;;;;;;;;1027691;28;20037;-18
2024/02/05 01:52:50;;;;;;;1.90;1.77;;;;;;;;;;1031218;28;20120;-18
2024/02/05 01:53:22;;;;;;;3.35;3.05;;;;;;;;;;1033243;28;20027;-19
2024/02/05 01:53:54;;;;;;;13.88;4.20;;;;;;;;;;1034885;28;20072;-18
2024/02/05 01:54:25;;;;;;;1.40;1.30;;;;;;;;;;1031614;28;20030;-18
2024/02/05 01:54:56;;;;;;;9.63;5.57;;;;;;;;;;1033373;28;20076;-18
2024/02/05 01:55:28;;;;;;;13.25;3.15;;;;;;;;;;1029884;28;20026;-18
2024/02/05 01:55:59;;;;;;;5.25;4.80;;;;;;;;;;1031299;28;20058;-18
2024/02/05 01:56:30;;;;;;;20.08;4.72;;;;;;;;;;1029975;28;20010;-18
2024/02/05 01:57:03;;;;;;;2.53;2.33;;;;;;;;;;1030336;28;20076;-18
2024/02/05 01:57:34;;;;;;;2.50;2.30;;;;;;;;;;1030747;28;20401;-18
2024/02/05 01:58:05;;;;;;;10.52;5.97;;;;;;;;;;1029048;28;20026;-18
2024/02/05 01:58:37;;;;;;;4.72;3.35;;;;;;;;;;1031114;28;20038;-18
2024/02/05 01:59:07;;;;;;;6.07;3.78;;;;;;;;;;1027509;28;20026;-18
2024/02/05 01:59:38;;;;;;;10.00;4.55;;;;;;;;;;1030966;28;20156;-19
2024/02/05 02:00:11;;;;;;;3.40;3.13;;;;;;;;;;1029099;28;20069;-18
2024/02/05 02:00:41;;;;;;;4.28;3.92;;;;;;;;;;1031471;28;20039;-18
2024/02/05 02:01:12;;;;;;;4.80;4.35;;;;;;;;;;1029209;28;20065;-17
2024/02/05 02:01:42;;;;;;;2.95;2.75;;;;;;;;;;1031331;28;20400;-18
2024/02/05 02:02:13;;;;;;;11.07;4.43;;;;;;;;;;1028974;28;20108;-18
2024/02/05 02:02:44;;;;;;;7.95;6.43;;;;;;;;;;1028805;28;20555;-17
2024/02/05 02:03:14;;;;;;;4.25;3.60;;;;;;;;;;1029781;28;20424;-18
2024/02/05 02:03:46;;;;;;;2.40;2.28;;;;;;;;;;1031180;28;20026;-19
2024/02/05 02:04:17;;;;;;;7.60;4.75;;;;;;;;;;1029426;28;20392;-18
2024/02/05 02:04:47;;;;;;;22.02;4.75;;;;;;;;;;1029568;28;20030;-18
2024/02/05 02:05:19;;;;;;;5.28;4.38;;;;;;;;;;1029577;28;20022;-18
2024/02/05 02:05:49;;;;;;;3.67;3.30;;;;;;;;;;1027616;28;20026;-18
2024/02/05 02:06:20;;;;;;;5.18;3.63;;;;;;;;;;1028952;28;20506;-19
2024/02/05 02:06:51;;;;;;;4.05;3.35;;;;;;;;;;1028732;28;20031;-19
2024/02/05 02:07:21;;;;;;;4.13;3.80;;;;;;;;;;1027994;28;20031;-18
2024/02/05 02:07:52;;;;;;;17.85;8.60;;;;;;;;;;1031252;28;20030;-17
2024/02/05 02:08:22;;;;;;;8.18;6.22;;;;;;;;;;1029344;28;20023;-19
2024/02/05 02:08:53;;;;;;;9.75;7.13;;;;;;;;;;1031023;28;20030;-18
2024/02/05 02:09:25;;;;;;;16.20;6.47;;;;;;;;;;1025507;28;20043;-19
2024/02/05 02:09:57;;;;;;;15.73;6.53;;;;;;;;;;1026472;28;20178;-18
2024/02/05 02:10:28;;;;;;;7.18;6.43;;;;;;;;;;1024267;28;20030;-18
2024/02/05 02:10:58;;;;;;;7.55;6.63;;;;;;;;;;1028136;28;20026;-18
2024/02/05 02:11:29;;;;;;;11.18;7.50;;;;;;;;;;1027995;28;20045;-18
2024/02/05 02:12:00;;;;;;;29.73;7.35;;;;;;;;;;1028970;28;20033;-18
2024/02/05 02:12:30;;;;;;;16.75;5.07;;;;;;;;;;1029407;28;20061;-18
2024/02/05 02:13:01;;;;;;;14.63;7.90;;;;;;;;;;1029067;28;20180;-17
2024/02/05 02:13:32;;;;;;;7.25;4.93;;;;;;;;;;1028120;28;20022;-19
2024/02/05 02:14:02;;;;;;;4.03;3.72;;;;;;;;;;1028343;28;20065;-18
2024/02/05 02:14:33;;;;;;;15.88;9.90;;;;;;;;;;1028622;28;20054;-18
2024/02/05 02:15:04;;;;;;;5.90;5.38;;;;;;;;;;1026848;28;20030;-18
2024/02/05 02:15:35;;;;;;;14.43;10.85;;;;;;;;;;1027480;28;20405;-18
2024/02/05 02:16:08;;;;;;;5.20;4.72;;;;;;;;;;1028166;28;20079;-18
2024/02/05 02:16:38;;;;;;;11.48;4.90;;;;;;;;;;1028526;28;20056;-18
2024/02/05 02:17:10;;;;;;;7.88;5.32;;;;;;;;;;1029027;28;20557;-18
2024/02/05 02:17:43;;;;;;;4.38;4.00;;;;;;;;;;1028768;28;20043;-18
2024/02/05 02:18:14;;;;;;;8.45;4.53;;;;;;;;;;1027813;28;20101;-18
2024/02/05 02:18:46;;;;;;;6.25;5.45;;;;;;;;;;1027100;28;20030;-18
2024/02/05 02:19:24;;;;;;;13.32;6.18;;;;;;;;;;1028703;28;20508;-17
2024/02/05 02:19:54;;;;;;;8.77;4.20;;;;;;;;;;1028278;28;20113;-19
2024/02/05 02:20:26;;;;;;;4.65;4.28;;;;;;;;;;1029530;28;20026;-18
2024/02/05 02:20:58;;;;;;;5.70;4.68;;;;;;;;;;1027538;28;20038;-18
2024/02/05 02:21:29;;;;;;;8.88;5.25;;;;;;;;;;1027865;28;20054;-18
2024/02/05 02:22:12;;;;;;;11.98;4.22;;;;;;;;;;1023898;28;20544;-18
2024/02/05 02:22:56;;;;;;;3.83;3.53;;;;;;;;;;1027772;28;20030;-17
2024/02/05 02:23:29;;;;;;;4.97;3.30;;;;;;;;;;1026123;28;20022;-18
2024/02/05 02:24:00;;;;;;;12.48;4.38;;;;;;;;;;1027949;28;20953;-18
2024/02/05 02:24:31;;;;;;;3.40;3.05;;;;;;;;;;1028841;28;20030;-18
2024/02/05 02:25:02;;;;;;;13.45;6.72;;;;;;;;;;1027548;28;20027;-18
2024/02/05 02:25:33;;;;;;;10.32;3.42;;;;;;;;;;1027079;28;20116;-17
2024/02/05 02:26:03;;;;;;;6.32;3.78;;;;;;;;;;1027722;28;20058;-18
2024/02/05 02:26:33;;;;;;;5.10;4.72;;;;;;;;;;1026271;28;20490;-18
2024/02/05 02:27:04;;;;;;;3.20;3.00;;;;;;;;;;1027079;28;20050;-18
2024/02/05 02:27:34;;;;;;;11.68;6.45;;;;;;;;;;1027757;28;20027;-18
2024/02/05 02:28:06;;;;;;;5.20;3.45;;;;;;;;;;1027900;28;20046;-19
2024/02/05 02:28:36;;;;;;;17.58;5.40;;;;;;;;;;1027635;28;20386;-18
2024/02/05 02:29:07;;;;;;;12.50;7.35;;;;;;;;;;1027681;28;20026;-18
2024/02/05 02:29:37;;;;;;;3.60;2.67;;;;;;;;;;1029166;28;20038;-17
2024/02/05 02:30:08;;;;;;;9.20;6.22;;;;;;;;;;1027858;28;20108;-18
2024/02/05 02:30:38;;;;;;;5.47;4.70;;;;;;;;;;1028205;28;20120;-20
2024/02/05 02:31:09;;;;;;;10.13;3.63;;;;;;;;;;1028020;28;20577;-19
2024/02/05 02:31:40;;;;;;;11.20;6.30;;;;;;;;;;1028871;28;20027;-18
2024/02/05 02:32:46;;;;;;;8.90;5.70;;;;;;;;;;1029297;28;20405;-19
2024/02/05 02:33:19;;;;;;;2.00;1.90;;;;;;;;;;1020020;29;20326;-18
2024/02/05 02:33:55;;;;;;;4.93;3.15;;;;;;;;;;1019776;29;20142;-18
2024/02/05 02:34:29;;;;;;;4.57;4.18;;;;;;;;;;1017607;29;20065;-18
2024/02/05 02:35:04;;;;;;;12.95;3.25;;;;;;;;;;1016220;29;20191;-20
2024/02/05 02:35:39;;;;;;;4.40;2.67;;;;;;;;;;1016803;29;20327;-17
2024/02/05 02:36:10;;;;;;;4.80;4.25;;;;;;;;;;1023009;28;20039;-19
2024/02/05 02:36:46;;;;;;;4.55;3.55;;;;;;;;;;1027703;28;20113;-19
2024/02/05 02:37:18;;;;;;;2.97;2.78;;;;;;;;;;1025933;28;20037;-17
2024/02/05 02:37:54;;;;;;;15.55;4.07;;;;;;;;;;1028193;28;20038;-18
2024/02/05 02:38:48;;;;;;;5.15;4.10;;;;;;;;;;1027825;28;20034;-18
2024/02/05 02:39:22;;;;;;;5.90;3.38;;;;;;;;;;1021455;28;20447;-18
2024/02/05 02:39:55;;;;;;;13.80;7.20;;;;;;;;;;1027597;28;20525;-17
2024/02/05 02:40:27;;;;;;;7.97;4.90;;;;;;;;;;1028074;28;20039;-18
2024/02/05 02:41:01;;;;;;;10.48;4.68;;;;;;;;;;1028781;28;20072;-18
2024/02/05 02:41:34;;;;;;;6.78;4.40;;;;;;;;;;1028290;28;20022;-17
2024/02/05 02:42:05;;;;;;;5.28;3.83;;;;;;;;;;1027436;28;20109;-18
2024/02/05 02:42:40;;;;;;;10.68;6.50;;;;;;;;;;1026774;28;20093;-18
2024/02/05 02:43:11;;;;;;;7.03;4.50;;;;;;;;;;1027890;28;20031;-18
2024/02/05 02:43:53;;;;;;;4.43;4.03;;;;;;;;;;1029140;28;20614;-19
2024/02/05 02:44:25;;;;;;;4.90;2.83;;;;;;;;;;1028421;28;20374;-18
2024/02/05 02:44:56;;;;;;;7.55;4.50;;;;;;;;;;1025153;28;20393;-18
2024/02/05 02:45:27;;;;;;;7.22;6.38;;;;;;;;;;1028201;28;20117;-17
2024/02/05 02:45:57;;;;;;;4.32;4.03;;;;;;;;;;1027633;28;20026;-19
2024/02/05 02:46:28;;;;;;;11.25;4.57;;;;;;;;;;1026850;28;20032;-18
2024/02/05 02:47:01;;;;;;;4.18;3.13;;;;;;;;;;1027459;28;20026;-18
2024/02/05 02:47:31;;;;;;;11.75;4.40;;;;;;;;;;1028130;28;20132;-18
2024/02/05 02:48:01;;;;;;;7.03;4.22;;;;;;;;;;1027788;28;20026;-18
2024/02/05 02:48:32;;;;;;;5.78;4.93;;;;;;;;;;1029196;28;20057;-18
2024/02/05 02:49:03;;;;;;;3.63;2.95;;;;;;;;;;1027535;28;20029;-18
2024/02/05 02:49:33;;;;;;;18.55;4.32;;;;;;;;;;1027607;28;20026;-17
2024/02/05 02:50:04;;;;;;;3.90;3.13;;;;;;;;;;1027763;28;20022;-18
2024/02/05 02:50:34;;;;;;;9.00;4.85;;;;;;;;;;1027792;28;20081;-18
2024/02/05 02:51:05;;;;;;;10.20;6.78;;;;;;;;;;1028396;28;20034;-17
2024/02/05 02:51:35;;;;;;;16.58;5.05;;;;;;;;;;1028349;28;20457;-19
2024/02/05 02:52:06;;;;;;;7.53;6.15;;;;;;;;;;1028473;28;20481;-21
2024/02/05 02:52:36;;;;;;;12.20;6.25;;;;;;;;;;1028395;28;20027;-18
2024/02/05 02:53:07;;;;;;;4.85;3.55;;;;;;;;;;1028020;28;20037;-18
2024/02/05 02:53:38;;;;;;;8.20;7.13;;;;;;;;;;1027840;28;20037;-18
2024/02/05 02:54:08;;;;;;;13.20;6.88;;;;;;;;;;1028746;28;20073;-18
2024/02/05 02:54:38;;;;;;;23.23;10.35;;;;;;;;;;1029409;28;20080;-18
2024/02/05 02:55:09;;;;;;;4.78;3.78;;;;;;;;;;1027233;28;20092;-19
2024/02/05 02:55:39;;;;;;;9.75;8.65;;;;;;;;;;1023164;28;20443;-17
2024/02/05 02:56:10;;;;;;;5.95;5.03;;;;;;;;;;1028345;28;20027;-18
2024/02/05 02:56:41;;;;;;;6.32;5.43;;;;;;;;;;1026541;28;20391;-18
2024/02/05 02:57:14;;;;;;;4.78;3.25;;;;;;;;;;1028034;28;20023;-18
2024/02/05 02:57:45;;;;;;;7.22;4.05;;;;;;;;;;1027767;28;20069;-17
2024/02/05 02:58:15;;;;;;;6.55;4.43;;;;;;;;;;1028154;28;20026;-19
2024/02/05 02:58:46;;;;;;;8.85;5.03;;;;;;;;;;1028570;28;20026;-18
2024/02/05 02:59:16;;;;;;;8.65;5.38;;;;;;;;;;1028785;28;20026;-18
2024/02/05 02:59:47;;;;;;;8.88;5.47;;;;;;;;;;1028950;28;20489;-18
2024/02/05 03:00:18;;;;;;;8.02;4.93;;;;;;;;;;1028668;28;20149;-19
2024/02/05 03:00:48;;;;;;;14.85;7.65;;;;;;;;;;1027809;28;20061;-18
2024/02/05 03:01:19;;;;;;;11.35;8.00;;;;;;;;;;1028744;28;20472;-18
2024/02/05 03:01:49;;;;;;;22.33;6.75;;;;;;;;;;1028944;28;20080;-18
2024/02/05 03:02:20;;;;;;;9.60;5.70;;;;;;;;;;1030558;28;20121;-18
2024/02/05 03:02:50;;;;;;;12.55;8.55;;;;;;;;;;1030660;28;20422;-18
2024/02/05 03:03:21;;;;;;;10.32;6.10;;;;;;;;;;1032866;28;20505;-18
2024/02/05 03:03:51;;;;;;;5.15;4.63;;;;;;;;;;1032093;28;20633;-19
2024/02/05 03:04:22;;;;;;;10.25;5.82;;;;;;;;;;1026920;28;20505;-17
2024/02/05 03:04:54;;;;;;;18.40;8.52;;;;;;;;;;1025790;28;20481;-17
2024/02/05 03:05:26;;;;;;;24.85;5.97;;;;;;;;;;1028414;28;20026;-19
2024/02/05 03:05:56;;;;;;;12.43;7.57;;;;;;;;;;1025543;28;20098;-18
2024/02/05 03:06:27;;;;;;;16.65;8.35;;;;;;;;;;1026197;28;20105;-18